TimeEDT,TemperatureF,Dew PointF,Humidity,Sea Level PressureIn,VisibilityMPH,Wind Direction,Wind SpeedMPH,Gust SpeedMPH,PrecipitationIn,Events,Conditions,WindDirDegrees,DateUTC
12:56 AM,46.0,43.0,89,30.23,10.0,Calm,Calm,-,N/A,,Overcast,0,2012-10-09 04:56:00
1:56 AM,46.0,44.1,93,30.24,10.0,Calm,Calm,-,N/A,,Overcast,0,2012-10-09 05:56:00
2:56 AM,46.0,44.1,93,30.24,8.0,West,3.5,-,N/A,,Overcast,260,2012-10-09 06:56:00
3:56 AM,46.0,44.1,93,30.22,8.0,Calm,Calm,-,N/A,,Overcast,0,2012-10-09 07:56:00
4:56 AM,46.0,44.1,93,30.22,8.0,West,4.6,-,N/A,,Overcast,270,2012-10-09 08:56:00
5:56 AM,46.0,44.1,93,30.22,7.0,Calm,Calm,-,N/A,,Overcast,0,2012-10-09 09:56:00
6:56 AM,46.0,44.1,93,30.22,8.0,WSW,3.5,-,N/A,,Overcast,250,2012-10-09 10:56:00
7:56 AM,46.0,44.1,93,30.22,9.0,West,3.5,-,N/A,,Overcast,260,2012-10-09 11:56:00
8:56 AM,48.0,45.0,89,30.23,9.0,West,3.5,-,N/A,,Overcast,270,2012-10-09 12:56:00
9:56 AM,48.9,43.0,80,30.23,10.0,WNW,3.5,-,N/A,,Overcast,300,2012-10-09 13:56:00
10:56 AM,53.1,44.1,71,30.22,10.0,Calm,Calm,-,N/A,,Mostly Cloudy,0,2012-10-09 14:56:00
11:50 AM,-9999,-9999,N/A,30.19,10.0,Variable,4.6,-,N/A,,Mostly Cloudy,0,2012-10-09 15:50:00
11:56 AM,-9999,-9999,N/A,30.19,-9999.0,Calm,Calm,-,N/A,,Unknown,0,2012-10-09 15:56:00
12:50 PM,-9999,-9999,N/A,30.18,10.0,Calm,Calm,-,N/A,,Overcast,0,2012-10-09 16:50:00
12:56 PM,-9999,-9999,N/A,30.18,-9999.0,East,3.5,-,N/A,,Unknown,90,2012-10-09 16:56:00
1:50 PM,57.2,44.6,63,30.14,10.0,ESE,4.6,-,N/A,,Overcast,110,2012-10-09 17:50:00
1:56 PM,57.9,45.0,62,30.15,10.0,North,-9999.0,-,N/A,,Overcast,0,2012-10-09 17:56:00
2:56 PM,57.9,43.0,58,30.14,10.0,East,4.6,-,N/A,,Overcast,90,2012-10-09 18:56:00
3:56 PM,57.9,44.1,60,30.13,10.0,Calm,Calm,-,N/A,,Overcast,0,2012-10-09 19:56:00
4:56 PM,57.9,46.0,65,30.12,10.0,ESE,5.8,-,N/A,,Overcast,110,2012-10-09 20:56:00
5:31 PM,57.2,46.4,67,30.12,10.0,ESE,6.9,-,N/A,,Overcast,110,2012-10-09 21:31:00
5:56 PM,57.0,46.9,69,30.12,10.0,ESE,8.1,-,N/A,,Overcast,120,2012-10-09 21:56:00
6:56 PM,55.9,48.9,77,30.13,10.0,ESE,3.5,-,N/A,,Overcast,120,2012-10-09 22:56:00
7:56 PM,55.0,48.9,80,30.12,10.0,SE,5.8,-,N/A,,Overcast,130,2012-10-09 23:56:00
8:20 PM,55.4,48.2,77,30.11,10.0,ESE,3.5,-,N/A,,Overcast,110,2012-10-10 00:20:00
8:36 PM,55.4,48.2,77,30.11,10.0,Calm,Calm,-,N/A,,Overcast,0,2012-10-10 00:36:00
8:45 PM,55.4,48.2,77,30.10,10.0,ESE,3.5,-,N/A,,Overcast,120,2012-10-10 00:45:00
8:56 PM,55.0,48.9,80,30.11,10.0,ESE,4.6,-,N/A,,Overcast,120,2012-10-10 00:56:00
9:56 PM,55.0,50.0,83,30.10,10.0,ESE,3.5,-,N/A,,Overcast,110,2012-10-10 01:56:00
10:56 PM,55.0,50.0,83,30.09,10.0,Calm,Calm,-,N/A,,Overcast,0,2012-10-10 02:56:00
11:56 PM,55.0,51.1,86,30.07,8.0,ESE,3.5,-,N/A,,Overcast,120,2012-10-10 03:56:00